Time;durP1;ratioP1;P1;durP2;ratioP2;P2;SDS_P1;SDS_P2;PMS_P1;PMS_P2;Temp;Humidity;BMP_temperature;BMP_pressure;BME280_temperature;BME280_humidity;BME280_pressure;Samples;Min_cycle;Max_cycle;Signal;HPM_P1;HPM_P2
2022/04/07 00:00:35;;;;;;;93.75;6.57;;;;;;;10.92;100.00;96399.75;5002127;28;20040;-53
2022/04/07 00:03:01;;;;;;;114.50;7.78;;;;;;;10.92;100.00;96406.75;4998335;28;20026;-53
2022/04/07 00:05:26;;;;;;;88.25;6.22;;;;;;;11.18;100.00;96399.72;4998069;28;20049;-53
2022/04/07 00:07:51;;;;;;;100.65;7.13;;;;;;;10.71;100.00;96398.56;5002353;28;20792;-52
2022/04/07 00:10:18;;;;;;;108.50;7.43;;;;;;;10.76;100.00;96396.50;5000293;28;20022;-52
2022/04/07 00:12:43;;;;;;;80.55;6.20;;;;;;;11.28;100.00;96394.69;5002970;28;20057;-53
2022/04/07 00:15:11;;;;;;;104.22;7.07;;;;;;;10.98;100.00;96388.88;4999229;28;20144;-54
2022/04/07 00:17:37;;;;;;;98.78;7.03;;;;;;;11.01;100.00;96387.84;5002159;28;20471;-52
2022/04/07 00:20:03;;;;;;;90.22;6.63;;;;;;;10.87;100.00;96387.94;5000791;28;20092;-52
2022/04/07 00:22:29;;;;;;;110.90;7.53;;;;;;;10.91;100.00;96377.19;4997870;28;20041;-54
2022/04/07 00:24:54;;;;;;;116.07;7.85;;;;;;;10.80;100.00;96375.31;5000440;28;20022;-52
2022/04/07 00:27:19;;;;;;;104.53;6.88;;;;;;;10.77;100.00;96383.38;5003541;28;20042;-53
2022/04/07 00:29:44;;;;;;;93.47;6.40;;;;;;;10.97;100.00;96370.72;4999719;28;20025;-54
2022/04/07 00:32:10;;;;;;;119.10;7.60;;;;;;;10.94;100.00;96371.78;4998293;28;20048;-53
2022/04/07 00:34:35;;;;;;;116.18;7.32;;;;;;;10.85;100.00;96366.38;4997030;28;20498;-53
2022/04/07 00:37:01;;;;;;;106.90;6.85;;;;;;;10.60;100.00;96358.44;5002409;28;20037;-53
2022/04/07 00:39:26;;;;;;;103.43;6.95;;;;;;;11.03;100.00;96353.81;5000865;28;20045;-52
2022/04/07 00:41:52;;;;;;;104.80;6.85;;;;;;;10.97;100.00;96355.94;5001693;28;20734;-52
2022/04/07 00:44:18;;;;;;;102.53;6.53;;;;;;;10.82;100.00;96356.13;5001678;28;20386;-54
2022/04/07 00:46:43;;;;;;;96.40;6.30;;;;;;;11.03;100.00;96354.66;4998864;28;20095;-53
2022/04/07 00:49:10;;;;;;;87.15;6.22;;;;;;;11.07;100.00;96350.91;5001026;28;20124;-52
2022/04/07 00:51:39;;;;;;;82.70;5.65;;;;;;;10.93;100.00;96343.19;5000769;28;20322;-52
2022/04/07 00:54:06;;;;;;;90.68;6.03;;;;;;;11.11;100.00;96341.09;5001505;28;20026;-52
2022/04/07 00:56:32;;;;;;;95.93;6.22;;;;;;;10.95;100.00;96331.72;4999638;28;20048;-54
2022/04/07 00:58:58;;;;;;;84.38;5.57;;;;;;;10.88;100.00;96340.06;4999256;28;20084;-52
2022/04/07 01:01:27;;;;;;;101.07;6.45;;;;;;;10.91;100.00;96339.84;5003431;28;20037;-53
2022/04/07 01:03:54;;;;;;;98.22;6.38;;;;;;;10.96;100.00;96335.97;4997348;28;20025;-53
2022/04/07 01:06:19;;;;;;;105.45;6.80;;;;;;;11.04;100.00;96329.41;4997398;28;20112;-52
2022/04/07 01:08:45;;;;;;;104.07;6.68;;;;;;;10.71;100.00;96333.38;4999499;28;20030;-54
2022/04/07 01:11:10;;;;;;;91.70;6.07;;;;;;;11.13;100.00;96323.53;4999652;28;20038;-54
2022/04/07 01:14:02;;;;;;;102.93;6.53;;;;;;;11.06;100.00;96317.91;4999906;28;20030;-53
2022/04/07 01:16:28;;;;;;;82.88;5.60;;;;;;;10.97;100.00;96323.75;5002267;28;20046;-52
2022/04/07 01:18:56;;;;;;;106.30;6.80;;;;;;;11.23;100.00;96313.28;5001474;28;20448;-53
2022/04/07 01:21:21;;;;;;;82.93;5.47;;;;;;;11.26;100.00;96310.47;5003657;28;20044;-53
2022/04/07 01:23:57;;;;;;;79.47;5.45;;;;;;;10.96;100.00;96316.91;5000812;28;20034;-52
2022/04/07 01:26:25;;;;;;;89.03;5.93;;;;;;;10.90;100.00;96317.31;4998688;28;20041;-53
2022/04/07 01:28:50;;;;;;;86.32;5.68;;;;;;;11.07;100.00;96313.53;5004805;28;20030;-53
2022/04/07 01:31:15;;;;;;;98.63;6.50;;;;;;;10.94;100.00;96314.38;5006323;28;20037;-54
2022/04/07 01:33:42;;;;;;;87.97;5.82;;;;;;;10.85;100.00;96314.19;5000352;28;20642;-53
2022/04/07 01:36:08;;;;;;;121.88;7.40;;;;;;;11.04;100.00;96308.53;4997228;28;20081;-53
2022/04/07 01:38:33;;;;;;;93.93;5.90;;;;;;;10.91;100.00;96317.19;5003583;28;20414;-54
2022/04/07 01:40:59;;;;;;;78.70;5.35;;;;;;;11.37;100.00;96316.59;5008409;28;20100;-54
2022/04/07 01:43:25;;;;;;;80.22;5.75;;;;;;;10.90;100.00;96312.94;5006671;28;20032;-53
2022/04/07 01:45:51;;;;;;;96.53;6.10;;;;;;;11.12;100.00;96307.06;5001618;28;20049;-53
2022/04/07 01:48:18;;;;;;;97.32;6.20;;;;;;;10.92;100.00;96303.22;5003569;28;20030;-53
2022/04/07 01:50:45;;;;;;;86.95;5.75;;;;;;;10.84;100.00;96305.53;5005690;28;20042;-53
2022/04/07 01:53:11;;;;;;;84.80;5.72;;;;;;;10.58;100.00;96308.13;5004473;28;20495;-52
2022/04/07 01:55:38;;;;;;;95.25;6.03;;;;;;;10.91;100.00;96309.38;5005531;28;20074;-53
2022/04/07 01:58:04;;;;;;;84.57;5.72;;;;;;;10.52;100.00;96302.53;5006162;28;20031;-53
2022/04/07 02:00:30;;;;;;;111.60;6.72;;;;;;;10.70;100.00;96300.44;5003360;28;20121;-52
2022/04/07 02:02:55;;;;;;;105.20;6.70;;;;;;;10.55;100.00;96292.72;4999508;28;20116;-53
2022/04/07 02:05:21;;;;;;;103.20;6.43;;;;;;;10.65;100.00;96297.31;5003796;28;20473;-53
2022/04/07 02:07:46;;;;;;;96.22;6.05;;;;;;;10.85;100.00;96302.00;5003348;28;20473;-53
2022/04/07 02:10:13;;;;;;;83.25;5.45;;;;;;;10.84;100.00;96297.69;5000664;28;20913;-52
2022/04/07 02:12:41;;;;;;;88.13;5.78;;;;;;;10.92;100.00;96305.84;5005440;28;20057;-52
2022/04/07 02:15:07;;;;;;;100.47;6.35;;;;;;;10.89;100.00;96300.81;5002564;28;20629;-53
2022/04/07 02:17:33;;;;;;;105.35;6.78;;;;;;;11.10;100.00;96305.47;5002111;28;20105;-53
2022/04/07 02:19:59;;;;;;;93.18;5.95;;;;;;;11.12;100.00;96312.28;5006407;28;20175;-54
2022/04/07 02:22:28;;;;;;;96.25;5.95;;;;;;;11.19;100.00;96307.44;5007173;28;20045;-53
2022/04/07 02:24:55;;;;;;;97.47;6.28;;;;;;;11.22;100.00;96304.63;5007271;28;20030;-54
2022/04/07 02:27:21;;;;;;;80.53;5.55;;;;;;;11.01;100.00;96301.75;5009609;28;20052;-53
2022/04/07 02:29:46;;;;;;;106.03;6.65;;;;;;;10.83;100.00;96296.06;5006158;28;20025;-54
2022/04/07 02:32:12;;;;;;;124.25;7.30;;;;;;;10.94;100.00;96298.75;5001993;28;20042;-53
2022/04/07 02:34:38;;;;;;;105.22;6.47;;;;;;;11.04;100.00;96311.13;5000228;28;20021;-53
2022/04/07 02:37:03;;;;;;;86.85;5.53;;;;;;;11.09;100.00;96293.41;5003500;28;20037;-53
2022/04/07 02:39:29;;;;;;;86.70;5.72;;;;;;;10.94;100.00;96293.53;5002562;28;20026;-53
2022/04/07 02:41:54;;;;;;;109.40;6.75;;;;;;;10.83;100.00;96283.00;5003252;28;20373;-53
2022/04/07 02:44:20;;;;;;;97.13;6.05;;;;;;;10.68;100.00;96271.00;5006421;28;20037;-54
2022/04/07 02:46:46;;;;;;;101.30;6.38;;;;;;;10.77;100.00;96265.16;5004317;28;20072;-52
2022/04/07 02:49:11;;;;;;;101.63;6.60;;;;;;;10.76;100.00;96260.91;5002117;28;20033;-52
2022/04/07 02:51:36;;;;;;;95.88;6.15;;;;;;;10.55;100.00;96258.84;4999960;28;20072;-54
2022/04/07 02:54:02;;;;;;;100.75;6.45;;;;;;;10.57;100.00;96263.97;5001809;28;20448;-52
2022/04/07 02:56:28;;;;;;;78.32;5.43;;;;;;;10.49;100.00;96261.84;5005980;28;20267;-53
2022/04/07 02:58:57;;;;;;;96.78;6.10;;;;;;;10.25;100.00;96260.88;5002982;28;20037;-52
2022/04/07 03:01:23;;;;;;;93.68;5.93;;;;;;;10.11;100.00;96252.25;5000781;28;20038;-54
2022/04/07 03:03:49;;;;;;;106.22;6.30;;;;;;;10.43;100.00;96256.25;5000308;28;20125;-54
2022/04/07 03:06:16;;;;;;;99.25;6.25;;;;;;;10.29;100.00;96260.56;5001072;28;20065;-53
2022/04/07 03:08:43;;;;;;;100.68;6.22;;;;;;;10.04;100.00;96259.63;4999349;28;20097;-53
2022/04/07 03:11:09;;;;;;;117.93;6.63;;;;;;;10.06;100.00;96254.31;5003195;28;20041;-53
2022/04/07 03:13:36;;;;;;;96.45;5.93;;;;;;;10.06;100.00;96256.91;5001633;28;20022;-54
2022/04/07 03:16:02;;;;;;;80.18;5.15;;;;;;;9.98;100.00;96260.03;5000235;28;20062;-53
2022/04/07 03:18:27;;;;;;;89.78;5.82;;;;;;;9.88;100.00;96264.16;5001766;28;20026;-52
2022/04/07 03:20:53;;;;;;;83.72;5.55;;;;;;;9.81;100.00;96271.56;5003212;28;20038;-53
2022/04/07 03:23:18;;;;;;;104.82;6.35;;;;;;;9.81;100.00;96255.94;5004312;28;20023;-53
2022/04/07 03:25:45;;;;;;;100.70;5.97;;;;;;;9.79;100.00;96256.97;5002065;28;20045;-54
2022/04/07 03:28:11;;;;;;;84.63;5.43;;;;;;;9.84;100.00;96255.72;5003161;28;20436;-52
2022/04/07 03:30:36;;;;;;;92.32;6.07;;;;;;;9.90;100.00;96253.66;5002165;28;20045;-53
2022/04/07 03:33:02;;;;;;;109.20;6.97;;;;;;;9.90;100.00;96258.88;4999368;28;20516;-53
2022/04/07 03:35:27;;;;;;;98.50;6.20;;;;;;;9.67;100.00;96249.94;5000399;28;20388;-54
2022/04/07 03:37:53;;;;;;;103.95;6.47;;;;;;;9.70;100.00;96247.97;5003740;28;20070;-53
2022/04/07 03:40:18;;;;;;;97.22;6.40;;;;;;;9.75;100.00;96251.13;5004920;28;20507;-53
2022/04/07 03:42:44;;;;;;;81.72;6.03;;;;;;;9.99;100.00;96258.25;5004520;28;20022;-53
2022/04/07 03:45:10;;;;;;;69.30;5.28;;;;;;;9.88;100.00;96255.53;5004014;28;20029;-53
2022/04/07 03:47:35;;;;;;;96.72;6.30;;;;;;;9.62;100.00;96253.69;5002505;28;20030;-52
2022/04/07 03:50:00;;;;;;;85.53;5.57;;;;;;;9.83;100.00;96251.47;5000257;28;20028;-53
2022/04/07 03:52:26;;;;;;;86.53;5.75;;;;;;;9.83;100.00;96251.47;5001413;28;20064;-52
2022/04/07 03:54:52;;;;;;;94.75;6.07;;;;;;;9.71;100.00;96249.66;5001714;28;20036;-53
2022/04/07 03:57:18;;;;;;;102.18;6.30;;;;;;;9.79;100.00;96249.97;5001927;28;20053;-53
2022/04/07 03:59:43;;;;;;;100.22;6.25;;;;;;;9.64;100.00;96253.59;5001676;28;20034;-52
2022/04/07 04:02:10;;;;;;;92.05;5.80;;;;;;;9.52;100.00;96243.97;5002530;28;20111;-53
2022/04/07 04:04:36;;;;;;;86.93;5.38;;;;;;;9.53;100.00;96248.25;5000846;28;20315;-53
2022/04/07 04:07:02;;;;;;;83.70;5.35;;;;;;;9.63;100.00;96247.56;5002705;28;20037;-53
2022/04/07 04:09:27;;;;;;;81.72;5.70;;;;;;;9.66;100.00;96238.72;5002147;28;20095;-53
2022/04/07 04:11:52;;;;;;;106.05;6.40;;;;;;;9.53;100.00;96240.44;5002217;28;20037;-53
2022/04/07 04:14:18;;;;;;;80.05;5.35;;;;;;;9.54;100.00;96244.72;4999946;28;20395;-53
2022/04/07 04:16:44;;;;;;;94.55;6.03;;;;;;;9.65;100.00;96244.88;5001568;28;20040;-53
2022/04/07 04:19:10;;;;;;;98.40;6.07;;;;;;;9.74;100.00;96246.00;5001239;28;20026;-52
2022/04/07 04:21:35;;;;;;;90.65;5.90;;;;;;;9.64;100.00;96243.19;5001870;28;20099;-54
2022/04/07 04:24:00;;;;;;;125.40;7.43;;;;;;;9.69;100.00;96235.91;4999017;28;20086;-53
2022/04/07 04:26:26;;;;;;;87.38;5.38;;;;;;;9.56;100.00;96230.69;5002287;28;20203;-54
2022/04/07 04:28:52;;;;;;;107.75;6.63;;;;;;;9.49;100.00;96228.59;4995401;28;20527;-54
2022/04/07 04:31:17;;;;;;;84.32;5.60;;;;;;;9.66;100.00;96236.09;5002655;28;20038;-53
2022/04/07 04:33:42;;;;;;;91.57;5.78;;;;;;;9.68;100.00;96234.25;5002807;28;20107;-55
2022/04/07 04:36:09;;;;;;;116.00;7.80;;;;;;;10.03;100.00;96236.28;4999749;28;20042;-54
2022/04/07 04:38:34;;;;;;;78.03;5.22;;;;;;;9.86;100.00;96236.56;4999809;28;20022;-54
2022/04/07 04:41:00;;;;;;;106.50;7.13;;;;;;;10.03;100.00;96225.84;5001561;28;20061;-55
2022/04/07 04:43:25;;;;;;;91.00;6.07;;;;;;;10.01;100.00;96231.16;5002144;28;20052;-55
2022/04/07 04:45:50;;;;;;;74.20;5.43;;;;;;;10.09;100.00;96235.03;5002755;28;20046;-55
2022/04/07 04:48:16;;;;;;;79.45;5.60;;;;;;;9.71;100.00;96236.66;5002872;28;20121;-55
2022/04/07 04:50:42;;;;;;;69.18;5.47;;;;;;;9.96;100.00;96222.84;5000225;28;20153;-56
2022/04/07 04:53:07;;;;;;;81.47;5.72;;;;;;;9.88;100.00;96221.69;5000378;28;20021;-54
2022/04/07 04:55:32;;;;;;;87.40;6.05;;;;;;;9.91;100.00;96213.69;5004887;28;20424;-56
2022/04/07 04:57:58;;;;;;;60.75;4.93;;;;;;;9.99;100.00;96219.19;5004500;28;20121;-57
2022/04/07 05:00:23;;;;;;;74.88;5.85;;;;;;;10.18;100.00;96217.03;5000077;28;20906;-55
2022/04/07 05:02:48;;;;;;;67.28;5.18;;;;;;;10.04;100.00;96219.72;5001514;28;20471;-55
2022/04/07 05:05:14;;;;;;;75.78;5.60;;;;;;;10.10;100.00;96224.50;5007840;28;20025;-56
2022/04/07 05:07:39;;;;;;;88.15;6.05;;;;;;;10.07;100.00;96216.06;5010838;28;20088;-55
2022/04/07 05:10:05;;;;;;;87.60;5.55;;;;;;;9.96;100.00;96214.19;5007270;28;20125;-56
2022/04/07 05:12:31;;;;;;;89.40;5.85;;;;;;;10.13;100.00;96208.69;5012440;28;20468;-57
2022/04/07 05:14:57;;;;;;;108.53;6.90;;;;;;;10.17;100.00;96204.91;5006915;28;20800;-57
2022/04/07 05:17:22;;;;;;;80.00;5.57;;;;;;;10.20;100.00;96196.91;5006218;28;20042;-54
2022/04/07 05:19:48;;;;;;;83.95;6.10;;;;;;;10.18;100.00;96196.19;5006931;28;20052;-54
2022/04/07 05:22:14;;;;;;;88.82;5.80;;;;;;;10.40;100.00;96186.91;5005548;28;20033;-54
2022/04/07 05:24:39;;;;;;;96.93;6.60;;;;;;;11.13;100.00;96182.66;5003418;28;20025;-55
2022/04/07 05:27:04;;;;;;;78.28;5.40;;;;;;;10.60;100.00;96175.09;5003649;28;20046;-56
2022/04/07 05:29:30;;;;;;;87.15;6.00;;;;;;;10.91;100.00;96173.75;5006463;28;20527;-55
2022/04/07 05:31:55;;;;;;;82.38;5.40;;;;;;;10.59;100.00;96163.84;5005770;28;20087;-55
2022/04/07 05:34:20;;;;;;;82.57;5.72;;;;;;;10.67;100.00;96165.06;5002021;28;20048;-56
2022/04/07 05:36:46;;;;;;;98.55;6.50;;;;;;;11.12;100.00;96160.94;5004933;28;20463;-56
2022/04/07 05:39:13;;;;;;;90.78;5.95;;;;;;;11.02;100.00;96159.13;5006208;28;20587;-55
2022/04/07 05:41:38;;;;;;;102.47;6.35;;;;;;;10.82;100.00;96169.19;5001911;28;20049;-56
2022/04/07 05:44:04;;;;;;;74.38;5.00;;;;;;;10.55;100.00;96169.34;5007280;28;20040;-54
2022/04/07 05:46:29;;;;;;;77.90;5.70;;;;;;;10.88;100.00;96163.56;5007620;28;20053;-56
2022/04/07 05:48:55;;;;;;;88.25;5.60;;;;;;;10.96;100.00;96166.44;5008007;28;20049;-54
2022/04/07 05:51:20;;;;;;;91.88;6.22;;;;;;;11.27;100.00;96168.63;5007869;28;20153;-56
2022/04/07 05:53:45;;;;;;;97.00;5.95;;;;;;;10.71;100.00;96166.50;5010877;28;20026;-55
2022/04/07 05:56:11;;;;;;;78.80;5.18;;;;;;;11.04;100.00;96162.44;5004798;28;20414;-56
2022/04/07 05:58:36;;;;;;;76.75;4.88;;;;;;;10.83;100.00;96164.81;5006756;28;20045;-55
2022/04/07 06:01:01;;;;;;;82.10;5.10;;;;;;;10.91;100.00;96160.72;5007817;28;20484;-55
2022/04/07 06:03:27;;;;;;;81.38;5.35;;;;;;;10.78;100.00;96163.34;5012098;28;20043;-55
2022/04/07 06:05:54;;;;;;;96.05;5.85;;;;;;;10.74;100.00;96156.69;5005397;28;20096;-56
2022/04/07 06:08:20;;;;;;;85.47;5.35;;;;;;;10.88;100.00;96158.34;5003492;28;20018;-56
2022/04/07 06:10:45;;;;;;;79.55;5.07;;;;;;;11.03;100.00;96150.31;5001799;28;20038;-55
2022/04/07 06:13:11;;;;;;;65.88;4.32;;;;;;;11.08;100.00;96153.44;5005590;28;20651;-56
2022/04/07 06:15:39;;;;;;;73.72;4.50;;;;;;;10.77;100.00;96160.84;5002063;28;20038;-56
2022/04/07 06:18:08;;;;;;;100.95;5.72;;;;;;;11.03;100.00;96145.09;5008819;28;20037;-55
2022/04/07 06:20:33;;;;;;;70.30;4.38;;;;;;;10.82;100.00;96143.09;5003216;28;20113;-55
2022/04/07 06:23:00;;;;;;;73.80;4.82;;;;;;;11.32;100.00;96143.84;5006988;28;20208;-55
2022/04/07 06:25:26;;;;;;;91.25;5.53;;;;;;;11.26;100.00;96136.44;5008196;28;20096;-55
2022/04/07 06:27:51;;;;;;;82.90;5.05;;;;;;;11.40;100.00;96121.56;5008931;28;20037;-55
2022/04/07 06:30:20;;;;;;;96.00;5.68;;;;;;;11.20;100.00;96134.28;5004409;28;20029;-54
2022/04/07 06:32:47;;;;;;;78.13;4.88;;;;;;;11.89;100.00;96118.69;5001265;28;20057;-55
2022/04/07 06:35:15;;;;;;;93.18;5.70;;;;;;;12.44;100.00;96112.78;5001805;28;20071;-56
2022/04/07 06:37:53;;;;;;;84.60;5.38;;;;;;;12.21;100.00;96101.53;5008539;28;20482;-56
2022/04/07 06:40:29;;;;;;;94.03;5.57;;;;;;;12.00;100.00;96104.81;5005742;28;20025;-56
2022/04/07 06:42:56;;;;;;;66.75;4.20;;;;;;;12.75;100.00;96099.88;5001445;28;20032;-56
2022/04/07 06:45:22;;;;;;;95.50;5.72;;;;;;;13.77;100.00;96108.16;5000966;28;20029;-55
2022/04/07 06:47:48;;;;;;;73.80;4.57;;;;;;;15.00;100.00;96103.66;5005766;28;20159;-55
2022/04/07 06:50:14;;;;;;;71.10;4.55;;;;;;;15.01;100.00;96092.16;5006611;28;20338;-55
2022/04/07 06:52:41;;;;;;;74.22;4.82;;;;;;;14.98;100.00;96088.97;5008534;28;20026;-56
2022/04/07 06:55:08;;;;;;;68.50;4.53;;;;;;;14.19;100.00;96087.09;4997591;28;20192;-55
2022/04/07 06:57:46;;;;;;;91.88;5.60;;;;;;;16.15;98.72;96089.69;4998812;28;20018;-57
2022/04/07 07:00:13;;;;;;;68.30;4.43;;;;;;;15.48;100.00;96083.59;4998733;28;20049;-57
2022/04/07 07:02:38;;;;;;;96.53;5.95;;;;;;;13.96;100.00;96076.00;5003030;28;20109;-56
2022/04/07 07:05:04;;;;;;;86.25;5.32;;;;;;;14.35;100.00;96082.19;5005202;28;20460;-53
2022/04/07 07:07:29;;;;;;;87.38;5.30;;;;;;;14.10;100.00;96067.78;5005071;28;20033;-53
2022/04/07 07:09:54;;;;;;;76.93;4.85;;;;;;;15.48;100.00;96070.47;5000470;28;20041;-54
2022/04/07 07:12:21;;;;;;;79.05;5.07;;;;;;;16.68;90.87;96061.88;5004643;28;20049;-55
2022/04/07 07:14:47;;;;;;;111.72;6.72;;;;;;;17.45;79.62;96057.00;5005956;28;20037;-56
2022/04/07 07:17:13;;;;;;;77.78;5.18;;;;;;;17.80;79.13;96044.72;5006457;28;20037;-54
2022/04/07 07:19:38;;;;;;;83.55;5.53;;;;;;;17.76;71.47;96048.66;5004109;28;20045;-56
2022/04/07 07:22:04;;;;;;;78.43;5.30;;;;;;;18.10;79.36;96040.81;5004870;28;20046;-54
2022/04/07 07:24:29;;;;;;;79.15;5.28;;;;;;;17.10;76.50;96040.25;5005134;28;20038;-53
2022/04/07 07:26:54;;;;;;;95.07;5.65;;;;;;;16.34;74.12;96025.66;5004701;28;20034;-55
2022/04/07 07:29:20;;;;;;;87.95;5.88;;;;;;;16.23;74.94;96031.13;5006589;28;20141;-54
2022/04/07 07:31:45;;;;;;;69.40;4.65;;;;;;;16.77;74.51;96021.47;5003734;28;20218;-54
2022/04/07 07:34:10;;;;;;;89.03;5.55;;;;;;;16.54;73.17;96007.09;5003625;28;20060;-54
2022/04/07 07:36:36;;;;;;;72.50;4.95;;;;;;;16.30;80.04;95979.56;5005816;28;20121;-56
2022/04/07 07:39:01;;;;;;;82.75;5.15;;;;;;;16.60;75.98;95988.09;5004480;28;20025;-56
2022/04/07 07:41:26;;;;;;;77.47;5.13;;;;;;;16.11;79.58;95984.94;5003226;28;20117;-54
2022/04/07 07:43:52;;;;;;;82.50;5.15;;;;;;;15.42;78.73;95981.72;5002282;28;20033;-54
2022/04/07 07:46:17;;;;;;;84.55;5.63;;;;;;;16.14;78.67;96003.06;5001370;28;20045;-55
2022/04/07 07:48:43;;;;;;;82.82;5.20;;;;;;;15.86;80.59;95999.56;5006617;28;20036;-54
2022/04/07 07:51:08;;;;;;;91.38;5.55;;;;;;;15.74;79.03;95981.34;5000869;28;20052;-55
2022/04/07 07:53:34;;;;;;;72.35;4.88;;;;;;;15.95;79.68;96010.06;5001472;28;20029;-56
2022/04/07 07:55:59;;;;;;;67.43;4.47;;;;;;;15.33;80.93;95998.31;5000354;28;20073;-55
2022/04/07 07:58:25;;;;;;;71.05;4.57;;;;;;;14.64;83.90;95979.16;5002452;28;20631;-55
2022/04/07 08:00:51;;;;;;;76.47;4.88;;;;;;;15.69;85.59;95983.56;5003755;28;20518;-57
2022/04/07 08:03:16;;;;;;;80.72;5.32;;;;;;;17.23;76.40;95978.47;5003581;28;20030;-55
2022/04/07 08:05:42;;;;;;;81.93;5.32;;;;;;;17.69;70.33;95963.25;4999950;28;20038;-55
2022/04/07 08:08:07;;;;;;;76.40;4.72;;;;;;;17.74;62.97;95968.88;5003735;28;20658;-56
2022/04/07 08:10:33;;;;;;;68.60;4.90;;;;;;;18.41;60.87;95968.16;5003394;28;20063;-56
2022/04/07 08:12:58;;;;;;;68.07;4.50;;;;;;;17.71;62.40;95963.91;5006610;28;20029;-55
2022/04/07 08:15:27;;;;;;;96.18;5.82;;;;;;;16.81;66.69;95973.81;5003817;28;21150;-56
2022/04/07 08:17:52;;;;;;;73.15;5.05;;;;;;;16.64;65.36;95989.44;5002248;28;20129;-55
2022/04/07 08:20:18;;;;;;;89.38;5.57;;;;;;;17.48;69.75;95967.09;5000671;28;20103;-57
2022/04/07 08:22:43;;;;;;;78.50;5.07;;;;;;;16.29;70.04;95963.94;5001765;28;20120;-54
2022/04/07 08:25:09;;;;;;;80.05;5.07;;;;;;;15.87;71.22;95974.97;5002080;28;20129;-55
2022/04/07 08:27:34;;;;;;;84.00;5.22;;;;;;;16.51;70.40;95952.97;5004004;28;20201;-55
2022/04/07 08:29:59;;;;;;;80.25;5.18;;;;;;;16.54;74.90;95965.00;5004151;28;20075;-55
2022/04/07 08:32:25;;;;;;;63.78;4.20;;;;;;;16.40;74.31;95950.56;5003592;28;20414;-55
2022/04/07 08:34:50;;;;;;;99.15;5.88;;;;;;;17.12;69.78;95946.09;5000930;28;20416;-54
2022/04/07 08:37:15;;;;;;;67.63;4.40;;;;;;;15.25;72.41;95958.81;5000447;28;20065;-54
2022/04/07 08:39:41;;;;;;;82.68;5.47;;;;;;;15.17;78.28;95955.09;5003825;28;20057;-59
2022/04/07 08:42:06;;;;;;;76.55;4.80;;;;;;;14.27;80.67;95954.38;5000897;28;20164;-56
2022/04/07 08:44:32;;;;;;;75.93;4.93;;;;;;;14.78;91.41;95963.03;5002707;28;20048;-56
2022/04/07 08:46:59;;;;;;;85.78;5.22;;;;;;;14.53;89.97;95948.63;5004299;28;20684;-57
2022/04/07 08:49:25;;;;;;;81.82;5.13;;;;;;;15.04;84.89;95941.44;5002930;28;20498;-55
2022/04/07 08:51:52;;;;;;;93.70;5.72;;;;;;;14.60;89.67;95948.94;5003640;28;20485;-56
2022/04/07 08:54:21;;;;;;;69.88;4.63;;;;;;;14.15;97.79;95965.13;5004851;28;20498;-55
2022/04/07 08:56:47;;;;;;;83.05;4.97;;;;;;;14.30;99.85;95948.06;5001471;28;20865;-55
2022/04/07 08:59:13;;;;;;;80.30;5.00;;;;;;;14.34;100.00;95941.56;4998421;28;20570;-56
2022/04/07 09:01:39;;;;;;;79.43;5.07;;;;;;;14.72;100.00;95942.59;5002498;28;20570;-56
2022/04/07 09:04:04;;;;;;;99.07;5.95;;;;;;;14.43;100.00;95943.38;5004658;28;20057;-56
2022/04/07 09:06:33;;;;;;;78.38;5.07;;;;;;;13.53;100.00;95936.41;5000856;28;20145;-57
2022/04/07 09:09:22;;;;;;;88.82;5.50;;;;;;;12.87;100.00;95934.09;4999911;28;20037;-56
2022/04/07 09:11:53;;;;;;;83.20;5.07;;;;;;;12.59;100.00;95933.75;5001462;28;20037;-55
2022/04/07 09:14:18;;;;;;;82.65;4.97;;;;;;;12.77;100.00;95935.81;5003990;28;20133;-55
2022/04/07 09:16:44;;;;;;;74.03;4.63;;;;;;;13.22;100.00;95933.75;5000170;28;20042;-53
2022/04/07 09:19:09;;;;;;;97.55;5.68;;;;;;;12.63;100.00;95929.13;5001545;28;20034;-55
2022/04/07 09:21:36;;;;;;;77.57;4.85;;;;;;;12.78;100.00;95913.94;5004944;28;20062;-56
2022/04/07 09:24:05;;;;;;;76.05;4.65;;;;;;;12.81;100.00;95906.66;5002900;28;20032;-56
2022/04/07 09:26:31;;;;;;;82.78;5.22;;;;;;;13.40;100.00;95912.22;5002410;28;20040;-55
2022/04/07 09:28:57;;;;;;;77.07;4.75;;;;;;;12.65;100.00;95895.81;5004340;28;20042;-56
2022/04/07 09:31:23;;;;;;;87.57;5.18;;;;;;;13.32;100.00;95889.31;5001121;28;20116;-55
2022/04/07 09:33:53;;;;;;;82.60;4.97;;;;;;;12.92;100.00;95888.28;4997322;28;20034;-57
2022/04/07 09:36:21;;;;;;;99.82;5.65;;;;;;;13.41;100.00;95877.22;5003299;28;20037;-56
2022/04/07 09:38:51;;;;;;;62.63;4.32;;;;;;;13.72;100.00;95871.94;4998189;28;20663;-55
2022/04/07 09:41:19;;;;;;;81.78;5.15;;;;;;;13.76;100.00;95865.47;5000567;28;20041;-56
2022/04/07 09:43:50;;;;;;;91.82;5.43;;;;;;;13.37;100.00;95855.72;5002315;28;20037;-54
2022/04/07 09:46:20;;;;;;;88.82;5.43;;;;;;;13.49;100.00;95857.28;5002916;28;20065;-55
2022/04/07 09:49:03;;;;;;;89.47;5.22;;;;;;;13.88;100.00;95844.25;5002497;28;20038;-55
2022/04/07 09:51:30;;;;;;;97.35;5.63;;;;;;;13.96;100.00;95843.56;5006017;28;20697;-54
2022/04/07 09:53:56;;;;;;;75.53;4.72;;;;;;;14.20;100.00;95837.09;5007030;28;20709;-55
2022/04/07 09:56:29;;;;;;;91.55;5.32;;;;;;;13.97;100.00;95826.03;5005312;28;20076;-55
2022/04/07 09:58:55;;;;;;;84.38;5.32;;;;;;;13.81;100.00;95831.84;5006114;28;20021;-55
2022/04/07 10:01:22;;;;;;;87.60;5.30;;;;;;;15.09;100.00;95807.13;5005110;28;20128;-58
2022/04/07 10:03:49;;;;;;;106.47;6.13;;;;;;;15.06;100.00;95805.63;5004071;28;20061;-55
2022/04/07 10:06:16;;;;;;;80.88;5.10;;;;;;;15.28;100.00;95790.47;5003405;28;20038;-56
2022/04/07 10:08:42;;;;;;;91.18;5.65;;;;;;;15.56;100.00;95804.41;5003922;28;20033;-54
2022/04/07 10:11:08;;;;;;;87.35;5.28;;;;;;;14.90;100.00;95781.78;5006059;28;20034;-54
2022/04/07 10:13:36;;;;;;;70.38;4.40;;;;;;;15.29;100.00;95781.59;5006883;28;20129;-56
2022/04/07 10:16:03;;;;;;;72.20;4.70;;;;;;;15.05;100.00;95769.81;5000889;28;20552;-55
2022/04/07 10:18:36;;;;;;;84.70;5.15;;;;;;;15.58;100.00;95763.03;5004708;28;20692;-56
2022/04/07 10:21:04;;;;;;;88.10;5.32;;;;;;;15.04;97.82;95742.75;5006911;28;20061;-55
2022/04/07 10:23:55;;;;;;;80.05;4.93;;;;;;;14.95;100.00;95753.31;5002950;28;20033;-55
2022/04/07 10:26:23;;;;;;;85.00;5.28;;;;;;;14.53;100.00;95740.59;5004374;28;20038;-54
2022/04/07 10:28:55;;;;;;;87.45;5.20;;;;;;;14.42;100.00;95745.00;5007177;28;20119;-57
2022/04/07 10:31:22;;;;;;;68.80;4.47;;;;;;;14.46;100.00;95754.28;4998182;28;20513;-61
2022/04/07 10:33:48;;;;;;;74.82;4.70;;;;;;;14.56;100.00;95748.19;5005291;28;20128;-56
2022/04/07 10:36:15;;;;;;;80.85;5.05;;;;;;;14.41;100.00;95746.00;5001201;28;20087;-56
2022/04/07 10:38:42;;;;;;;69.70;4.35;;;;;;;13.95;100.00;95751.97;5003791;28;20108;-56
2022/04/07 10:41:08;;;;;;;79.32;4.90;;;;;;;14.11;100.00;95759.28;5004713;28;20053;-55
2022/04/07 10:43:43;;;;;;;86.82;5.18;;;;;;;13.51;100.00;95755.03;5004336;28;20026;-55
2022/04/07 10:46:18;;;;;;;80.35;5.03;;;;;;;13.15;100.00;95741.53;5004687;28;20474;-57
2022/04/07 10:48:58;;;;;;;81.13;5.03;;;;;;;12.73;100.00;95741.69;5006861;28;20022;-55
2022/04/07 10:51:44;;;;;;;91.63;5.53;;;;;;;12.86;100.00;95725.75;5004526;28;20038;-54
2022/04/07 10:54:10;;;;;;;89.00;5.38;;;;;;;12.83;100.00;95711.16;5002456;28;20049;-57
2022/04/07 10:56:36;;;;;;;82.15;5.18;;;;;;;13.50;100.00;95698.38;5000696;28;20043;-56
2022/04/07 10:59:24;;;;;;;60.05;3.97;;;;;;;13.95;100.00;95687.31;4998096;28;20165;-56
2022/04/07 11:01:56;;;;;;;78.15;4.95;;;;;;;14.27;100.00;95684.34;5003433;28;20152;-55
2022/04/07 11:04:24;;;;;;;96.80;5.90;;;;;;;14.29;100.00;95678.94;5003178;28;20036;-57
2022/04/07 11:07:04;;;;;;;72.57;4.57;;;;;;;14.00;100.00;95674.59;4996449;28;20691;-56
2022/04/07 11:09:54;;;;;;;89.53;5.13;;;;;;;14.54;100.00;95672.25;5005390;28;20037;-54
2022/04/07 11:12:28;;;;;;;83.00;5.10;;;;;;;14.82;100.00;95672.28;5003792;28;20034;-55
2022/04/07 11:15:02;;;;;;;100.25;6.07;;;;;;;14.37;100.00;95665.97;5004064;28;20029;-55
2022/04/07 11:17:33;;;;;;;81.93;5.22;;;;;;;14.17;100.00;95661.72;5003328;28;20145;-56